createdAt,value
2023-01-20T00:01:49.069Z,1.50
2023-01-20T00:04:20.062Z,1.60
2023-01-20T00:06:48.156Z,1.50
2023-01-20T00:09:18.517Z,1.50
2023-01-20T00:11:47.075Z,1.50
2023-01-20T00:14:16.699Z,1.50
2023-01-20T00:16:44.633Z,1.50
2023-01-20T00:19:15.748Z,1.60
2023-01-20T00:21:44.251Z,1.50
2023-01-20T00:24:12.091Z,1.50
2023-01-20T00:26:40.244Z,1.50
2023-01-20T00:29:12.738Z,1.50
2023-01-20T00:31:40.531Z,1.50
2023-01-20T00:34:11.176Z,1.40
2023-01-20T00:36:38.982Z,1.40
2023-01-20T00:39:07.026Z,1.40
2023-01-20T00:41:34.827Z,1.50
2023-01-20T00:44:02.616Z,1.40
2023-01-20T00:46:30.546Z,1.50
2023-01-20T00:48:58.374Z,1.50
2023-01-20T00:51:25.960Z,1.50
2023-01-20T00:53:54.102Z,1.50
2023-01-20T00:56:21.879Z,1.40
2023-01-20T00:58:50.026Z,1.40
2023-01-20T01:01:17.958Z,1.40
2023-01-20T01:03:46.131Z,1.40
2023-01-20T01:06:18.567Z,1.40
2023-01-20T01:08:46.958Z,1.40
2023-01-20T01:11:15.258Z,1.40
2023-01-20T01:13:43.987Z,1.40
2023-01-20T01:16:16.687Z,1.40
2023-01-20T01:18:44.738Z,1.50
2023-01-20T01:21:17.257Z,1.50
2023-01-20T01:23:45.826Z,1.50
2023-01-20T01:26:14.465Z,1.40
2023-01-20T01:28:42.561Z,1.50
2023-01-20T01:31:11.191Z,1.50
2023-01-20T01:33:39.159Z,1.50
2023-01-20T01:36:13.769Z,1.40
2023-01-20T01:38:42.000Z,1.50
2023-01-20T01:41:17.232Z,1.50
2023-01-20T01:44:13.955Z,1.50
2023-01-20T01:46:43.613Z,1.50
2023-01-20T01:49:30.078Z,1.50
2023-01-20T01:52:09.548Z,1.60
2023-01-20T01:54:45.650Z,1.60
2023-01-20T01:57:13.818Z,1.60
2023-01-20T01:59:44.132Z,1.50
2023-01-20T02:02:11.988Z,1.50
2023-01-20T02:04:43.386Z,1.50
2023-01-20T02:07:21.158Z,1.50
2023-01-20T02:09:48.906Z,1.60
2023-01-20T02:12:22.876Z,1.60
2023-01-20T02:14:59.750Z,1.60
2023-01-20T02:17:54.088Z,1.60
2023-01-20T02:21:05.677Z,1.60
2023-01-20T02:24:41.146Z,1.60
2023-01-20T02:28:12.674Z,1.60
2023-01-20T02:31:27.693Z,1.50
2023-01-20T02:34:52.514Z,1.50
2023-01-20T02:37:30.419Z,1.50
2023-01-20T02:40:40.160Z,1.40
2023-01-20T02:43:44.975Z,1.40
2023-01-20T02:46:33.376Z,1.40
2023-01-20T02:49:32.991Z,1.40
2023-01-20T02:52:27.139Z,1.50
2023-01-20T02:55:06.422Z,1.50
2023-01-20T02:57:58.833Z,1.40
2023-01-20T03:00:54.065Z,1.50
2023-01-20T03:03:36.904Z,1.50
2023-01-20T03:06:23.291Z,1.40
2023-01-20T03:08:56.495Z,1.50
2023-01-20T03:11:24.619Z,1.50
2023-01-20T03:14:06.643Z,1.50
2023-01-20T03:16:35.177Z,1.50
2023-01-20T03:19:03.557Z,1.50
2023-01-20T03:21:32.909Z,1.50
2023-01-20T03:24:07.139Z,1.40
2023-01-20T03:26:35.245Z,1.50
2023-01-20T03:29:12.759Z,1.50
2023-01-20T03:31:52.444Z,1.50
2023-01-20T03:34:26.293Z,1.50
2023-01-20T03:36:56.642Z,1.60
2023-01-20T03:39:26.463Z,1.60
2023-01-20T03:42:29.494Z,1.50
2023-01-20T03:45:52.934Z,1.50
2023-01-20T03:48:58.296Z,1.40
2023-01-20T03:51:46.881Z,1.40
2023-01-20T03:54:28.278Z,1.40
2023-01-20T03:57:26.348Z,1.50
2023-01-20T03:59:55.912Z,1.50
2023-01-20T04:02:28.498Z,1.50
2023-01-20T04:05:01.973Z,1.40
2023-01-20T04:07:33.399Z,1.40
2023-01-20T04:10:17.856Z,1.50
2023-01-20T04:12:45.750Z,1.50
2023-01-20T04:15:14.780Z,1.50
2023-01-20T04:17:42.968Z,1.40
2023-01-20T04:20:16.058Z,1.40
2023-01-20T04:22:59.357Z,1.40
2023-01-20T04:25:33.578Z,1.50
2023-01-20T04:28:01.430Z,1.50
2023-01-20T04:30:29.182Z,1.50
2023-01-20T04:32:56.993Z,1.50
2023-01-20T04:35:24.909Z,1.50
2023-01-20T04:37:52.778Z,1.50
2023-01-20T04:40:20.679Z,1.50
2023-01-20T04:42:48.328Z,1.50
2023-01-20T04:45:17.856Z,1.40
2023-01-20T04:47:45.712Z,1.40
2023-01-20T04:50:15.395Z,1.50
2023-01-20T04:52:44.142Z,1.40
2023-01-20T04:55:13.170Z,1.40
2023-01-20T04:57:42.021Z,1.40
2023-01-20T05:00:12.578Z,1.40
2023-01-20T05:02:40.652Z,1.40
2023-01-20T05:05:09.643Z,1.50
2023-01-20T05:07:37.500Z,1.50
2023-01-20T05:10:06.513Z,1.40
2023-01-20T05:12:34.506Z,1.40
2023-01-20T05:15:02.484Z,1.50
2023-01-20T05:17:30.320Z,1.50
2023-01-20T05:19:58.115Z,1.50
2023-01-20T05:22:25.885Z,1.50
2023-01-20T05:24:53.895Z,1.50
2023-01-20T05:27:21.507Z,1.50
2023-01-20T05:29:49.149Z,1.40
2023-01-20T05:32:16.888Z,1.50
2023-01-20T05:34:44.627Z,1.50
2023-01-20T05:37:12.323Z,1.50
2023-01-20T05:39:40.080Z,1.50
2023-01-20T05:42:07.774Z,1.50
2023-01-20T05:44:36.171Z,1.50
2023-01-20T05:47:04.148Z,1.70
2023-01-20T05:49:31.872Z,1.70
2023-01-20T05:51:59.650Z,1.60
2023-01-20T05:54:27.472Z,1.60
2023-01-20T05:56:55.408Z,1.60
2023-01-20T05:59:24.735Z,1.60
2023-01-20T06:01:52.566Z,1.60
2023-01-20T06:04:20.361Z,1.60
2023-01-20T06:06:48.164Z,1.50
2023-01-20T06:09:16.053Z,1.60
2023-01-20T06:11:43.776Z,1.50
2023-01-20T06:14:12.052Z,1.50
2023-01-20T06:16:39.661Z,1.50
2023-01-20T06:19:07.287Z,1.50
2023-01-20T06:21:34.957Z,1.50
2023-01-20T06:24:02.635Z,1.50
2023-01-20T06:26:30.517Z,1.50
2023-01-20T06:29:01.696Z,1.50
2023-01-20T06:31:29.486Z,1.50
2023-01-20T06:33:57.310Z,1.50
2023-01-20T06:36:25.456Z,1.50
2023-01-20T06:38:53.853Z,1.60
2023-01-20T06:41:22.309Z,1.70
2023-01-20T06:43:51.846Z,1.80
2023-01-20T06:46:19.593Z,1.70
2023-01-20T06:48:47.627Z,1.80
2023-01-20T06:51:21.273Z,2.00
2023-01-20T06:53:49.187Z,2.00
2023-01-20T06:56:16.993Z,1.80
2023-01-20T06:58:45.280Z,1.80
2023-01-20T07:01:26.568Z,1.90
2023-01-20T07:03:55.319Z,1.80
2023-01-20T07:06:38.881Z,1.80
2023-01-20T07:09:12.928Z,1.80
2023-01-20T07:11:41.285Z,1.70
2023-01-20T07:14:10.130Z,1.70
2023-01-20T07:16:38.009Z,1.60
2023-01-20T07:19:05.999Z,1.60
2023-01-20T07:21:33.820Z,1.60
2023-01-20T07:24:02.790Z,1.50
2023-01-20T07:26:31.219Z,1.60
2023-01-20T07:29:00.622Z,1.70
2023-01-20T07:31:31.869Z,1.70
2023-01-20T07:34:00.222Z,1.80
2023-01-20T07:36:28.373Z,1.80
2023-01-20T07:38:56.079Z,1.70
2023-01-20T07:41:24.301Z,1.80
2023-01-20T07:43:54.788Z,1.70
2023-01-20T07:46:23.866Z,1.70
2023-01-20T07:48:51.450Z,1.60
2023-01-20T07:51:19.801Z,1.60
2023-01-20T07:53:52.130Z,1.60
2023-01-20T07:56:28.233Z,1.50
2023-01-20T07:58:56.816Z,1.50
2023-01-20T08:01:32.917Z,1.60
2023-01-20T08:04:01.880Z,1.70
2023-01-20T08:06:30.574Z,1.70
2023-01-20T08:09:02.442Z,1.70
2023-01-20T08:11:32.377Z,1.60
2023-01-20T08:14:09.246Z,1.70
2023-01-20T08:16:37.148Z,1.70
2023-01-20T08:19:05.261Z,2.00
2023-01-20T08:21:34.390Z,2.00
2023-01-20T08:24:06.780Z,2.10
2023-01-20T08:26:35.454Z,2.10
2023-01-20T08:29:10.286Z,2.10
2023-01-20T08:31:38.885Z,2.00
2023-01-20T08:34:06.828Z,1.90
2023-01-20T08:36:40.076Z,1.90
2023-01-20T08:39:14.349Z,2.00
2023-01-20T08:41:45.288Z,2.10
2023-01-20T08:44:15.293Z,2.10
2023-01-20T08:46:45.737Z,2.00
2023-01-20T08:49:18.188Z,2.10
2023-01-20T08:51:45.979Z,2.10
2023-01-20T08:54:15.431Z,2.10
2023-01-20T08:56:43.510Z,2.10
2023-01-20T08:59:12.472Z,2.10
2023-01-20T09:01:42.273Z,2.10
2023-01-20T09:04:10.702Z,2.10
2023-01-20T09:06:48.723Z,2.10
2023-01-20T09:09:22.161Z,2.00
2023-01-20T09:11:52.796Z,2.20
2023-01-20T09:14:24.867Z,2.20
2023-01-20T09:16:52.998Z,2.20
2023-01-20T09:19:20.769Z,2.20
2023-01-20T09:21:48.599Z,2.30
2023-01-20T09:24:16.339Z,2.30
2023-01-20T09:26:44.966Z,2.20
2023-01-20T09:29:20.034Z,2.20
2023-01-20T09:31:59.485Z,2.20
2023-01-20T09:34:31.215Z,2.20
2023-01-20T09:37:21.809Z,2.10
2023-01-20T09:40:08.384Z,2.20
2023-01-20T09:43:41.786Z,2.30
2023-01-20T09:46:43.613Z,2.40
2023-01-20T09:50:17.751Z,2.40
2023-01-20T09:53:04.374Z,2.50
2023-01-20T09:55:53.460Z,2.30
2023-01-20T09:59:11.060Z,2.40
2023-01-20T10:02:05.929Z,2.40
2023-01-20T10:04:54.950Z,2.50
2023-01-20T10:07:51.407Z,2.70
2023-01-20T10:10:36.607Z,2.70
2023-01-20T10:13:51.525Z,2.60
2023-01-20T10:16:54.768Z,2.60
2023-01-20T10:19:42.589Z,2.60
2023-01-20T10:22:41.909Z,2.80
2023-01-20T10:25:50.241Z,2.80
2023-01-20T10:28:41.723Z,2.90
2023-01-20T10:31:15.516Z,3.00
2023-01-20T10:33:46.087Z,3.00
2023-01-20T10:36:30.087Z,3.10
2023-01-20T10:39:40.747Z,3.30
2023-01-20T10:42:19.420Z,3.50
2023-01-20T10:44:52.725Z,3.40
2023-01-20T10:47:48.345Z,3.30
2023-01-20T10:51:14.892Z,3.10
2023-01-20T10:54:11.630Z,3.00
2023-01-20T10:56:53.960Z,3.20
2023-01-20T10:59:34.867Z,3.00
2023-01-20T11:02:28.384Z,3.00
2023-01-20T11:05:18.234Z,3.10
2023-01-20T11:07:49.409Z,3.20
2023-01-20T11:10:30.074Z,3.30
2023-01-20T11:13:02.806Z,3.30
2023-01-20T11:15:49.967Z,3.40
2023-01-20T11:18:17.683Z,3.40
2023-01-20T11:21:11.963Z,3.20
2023-01-20T11:23:57.557Z,3.20
2023-01-20T11:26:37.301Z,3.10
2023-01-20T11:29:10.782Z,3.20
2023-01-20T11:31:54.610Z,3.00
2023-01-20T11:34:36.461Z,2.90
2023-01-20T11:37:07.127Z,3.00
2023-01-20T11:40:01.612Z,3.10
2023-01-20T11:42:52.203Z,3.20
2023-01-20T11:45:37.595Z,3.30
2023-01-20T11:48:16.469Z,3.40
2023-01-20T11:51:03.403Z,3.40
2023-01-20T11:53:34.396Z,3.50
2023-01-20T11:56:26.498Z,3.50
2023-01-20T11:59:03.221Z,3.40
2023-01-20T12:02:27.487Z,3.40
2023-01-20T12:05:55.052Z,3.40
2023-01-20T12:09:22.605Z,3.50
2023-01-20T12:12:14.416Z,3.50
2023-01-20T12:15:39.538Z,3.50
2023-01-20T12:19:01.203Z,3.60
2023-01-20T12:21:47.983Z,3.70
2023-01-20T12:25:07.008Z,3.90
2023-01-20T12:27:51.537Z,4.00
2023-01-20T12:31:04.848Z,4.30
2023-01-20T12:33:47.597Z,4.60
2023-01-20T12:36:57.133Z,4.40
2023-01-20T12:39:48.720Z,4.20
2023-01-20T12:43:17.705Z,4.20
2023-01-20T12:46:33.622Z,4.20
2023-01-20T12:50:19.386Z,4.20
2023-01-20T12:53:45.253Z,4.10
2023-01-20T12:56:45.073Z,4.10
2023-01-20T13:00:20.837Z,4.00
2023-01-20T13:03:58.740Z,3.80
2023-01-20T13:07:01.430Z,3.80
2023-01-20T13:10:50.936Z,3.80
2023-01-20T13:14:29.253Z,3.60
2023-01-20T13:17:26.870Z,3.70
2023-01-20T13:20:04.884Z,3.90
2023-01-20T13:22:34.636Z,4.10
2023-01-20T13:25:05.019Z,4.00
2023-01-20T13:27:38.741Z,4.20
2023-01-20T13:30:40.382Z,4.00
2023-01-20T13:33:40.871Z,3.90
2023-01-20T13:36:23.803Z,3.90
2023-01-20T13:39:40.694Z,3.80
2023-01-20T13:42:39.366Z,4.00
2023-01-20T13:45:13.430Z,3.90
2023-01-20T13:48:08.392Z,3.80
2023-01-20T13:50:43.232Z,3.60
2023-01-20T13:53:10.859Z,3.60
2023-01-20T13:55:47.415Z,3.60
2023-01-20T13:58:35.961Z,3.70
2023-01-20T14:01:15.130Z,3.50
2023-01-20T14:03:43.722Z,3.40
2023-01-20T14:06:13.297Z,3.60
2023-01-20T14:08:51.496Z,3.70
2023-01-20T14:11:27.161Z,3.50
2023-01-20T14:14:08.237Z,3.50
2023-01-20T14:16:36.032Z,3.60
2023-01-20T14:19:36.306Z,3.50
2023-01-20T14:22:30.194Z,3.40
2023-01-20T14:25:01.940Z,3.30
2023-01-20T14:27:42.144Z,3.30
2023-01-20T14:30:27.609Z,3.50
2023-01-20T14:32:55.575Z,3.40
2023-01-20T14:35:34.485Z,3.50
2023-01-20T14:38:03.359Z,3.60
2023-01-20T14:40:40.423Z,3.60
2023-01-20T14:43:22.785Z,3.60
2023-01-20T14:45:53.175Z,3.70
2023-01-20T14:48:34.650Z,3.60
2023-01-20T14:51:06.043Z,3.60
2023-01-20T14:53:34.317Z,3.60
2023-01-20T14:56:08.337Z,3.50
2023-01-20T14:58:45.539Z,3.50
2023-01-20T15:01:26.933Z,3.40
2023-01-20T15:04:12.785Z,3.40
2023-01-20T15:06:40.930Z,3.50
2023-01-20T15:09:35.629Z,3.50
2023-01-20T15:12:48.130Z,3.50
2023-01-20T15:15:31.852Z,3.40
2023-01-20T15:18:23.405Z,3.30
2023-01-20T15:21:15.665Z,3.20
2023-01-20T15:23:45.940Z,3.10
2023-01-20T15:26:31.960Z,3.00
2023-01-20T15:28:59.849Z,2.90
2023-01-20T15:31:27.736Z,2.90
2023-01-20T15:33:55.418Z,2.80
2023-01-20T15:36:40.273Z,2.90
2023-01-20T15:39:19.037Z,2.80
2023-01-20T15:41:53.950Z,2.70
2023-01-20T15:44:26.574Z,2.60
2023-01-20T15:46:57.639Z,2.50
2023-01-20T15:49:25.895Z,2.40
2023-01-20T15:51:53.933Z,2.40
2023-01-20T15:54:22.076Z,2.40
2023-01-20T15:56:49.940Z,2.40
2023-01-20T15:59:21.228Z,2.40
2023-01-20T16:01:52.351Z,2.60
2023-01-20T16:04:20.973Z,2.70
2023-01-20T16:06:48.843Z,2.70
2023-01-20T16:09:29.890Z,2.60
2023-01-20T16:11:57.884Z,2.30
2023-01-20T16:14:25.523Z,2.20
2023-01-20T16:16:53.129Z,2.20
2023-01-20T16:19:21.039Z,2.00
2023-01-20T16:21:48.635Z,1.80
2023-01-20T16:24:16.328Z,1.70
2023-01-20T16:26:47.762Z,1.80
2023-01-20T16:29:15.586Z,1.80
2023-01-20T16:31:44.328Z,1.80
2023-01-20T16:34:12.504Z,1.90
2023-01-20T16:36:40.511Z,1.80
2023-01-20T16:39:08.207Z,1.80
2023-01-20T16:41:37.868Z,1.70
2023-01-20T16:44:05.825Z,1.60
2023-01-20T16:46:33.679Z,1.50
2023-01-20T16:49:03.025Z,1.20
2023-01-20T16:51:32.749Z,1.00
2023-01-20T16:54:00.881Z,0.90
2023-01-20T16:56:33.309Z,0.80
2023-01-20T16:59:03.223Z,0.70
2023-01-20T17:01:32.160Z,0.80
2023-01-20T17:04:03.718Z,0.70
2023-01-20T17:06:36.515Z,0.70
2023-01-20T17:09:06.010Z,0.70
2023-01-20T17:11:39.129Z,0.60
2023-01-20T17:14:11.715Z,0.30
2023-01-20T17:16:40.262Z,0.30
2023-01-20T17:19:08.186Z,0.40
2023-01-20T17:21:39.743Z,0.80
2023-01-20T17:24:08.353Z,0.60
2023-01-20T17:26:37.856Z,0.90
2023-01-20T17:29:07.176Z,1.00
2023-01-20T17:31:37.109Z,1.00
2023-01-20T17:34:07.566Z,0.80
2023-01-20T17:36:35.524Z,0.80
2023-01-20T17:39:06.061Z,0.50
2023-01-20T17:41:35.205Z,0.40
2023-01-20T17:44:04.246Z,0.30
2023-01-20T17:46:32.993Z,0.20
2023-01-20T17:49:04.870Z,0.20
2023-01-20T17:51:32.872Z,0.10
2023-01-20T17:54:03.805Z,0.00
2023-01-20T17:56:32.631Z,-0.10
2023-01-20T17:59:00.388Z,-0.20
2023-01-20T18:01:33.109Z,-0.30
2023-01-20T18:04:04.421Z,-0.20
2023-01-20T18:06:36.496Z,-0.30
2023-01-20T18:09:07.843Z,-0.30
2023-01-20T18:11:37.743Z,-0.30
2023-01-20T18:14:10.312Z,-0.30
2023-01-20T18:16:41.832Z,-0.30
2023-01-20T18:19:14.670Z,-0.30
2023-01-20T18:21:52.058Z,-0.20
2023-01-20T18:24:21.766Z,-0.10
2023-01-20T18:26:49.691Z,-0.10
2023-01-20T18:29:19.512Z,-0.10
2023-01-20T18:31:50.501Z,-0.10
2023-01-20T18:34:18.445Z,-0.20
2023-01-20T18:36:48.572Z,-0.30
2023-01-20T18:39:24.847Z,-0.40
2023-01-20T18:41:52.961Z,-0.40
2023-01-20T18:44:23.315Z,-0.30
2023-01-20T18:46:51.160Z,-0.30
2023-01-20T18:49:19.495Z,-0.50
2023-01-20T18:51:47.488Z,-0.40
2023-01-20T18:54:21.030Z,-0.40
2023-01-20T18:56:54.476Z,-0.40
2023-01-20T18:59:25.123Z,-0.40
2023-01-20T19:01:55.519Z,-0.30
2023-01-20T19:04:23.280Z,-0.30
2023-01-20T19:06:50.983Z,0.00
2023-01-20T19:09:19.785Z,0.00
2023-01-20T19:11:47.588Z,0.00
2023-01-20T19:14:16.193Z,0.10
2023-01-20T19:16:49.509Z,0.20
2023-01-20T19:19:19.350Z,0.20
2023-01-20T19:21:52.402Z,0.10
2023-01-20T19:24:22.530Z,0.20
2023-01-20T19:26:50.736Z,0.20
2023-01-20T19:29:19.469Z,0.20
2023-01-20T19:31:52.454Z,0.20
2023-01-20T19:34:20.390Z,0.10
2023-01-20T19:36:48.323Z,0.00
2023-01-20T19:39:17.019Z,-0.10
2023-01-20T19:41:44.873Z,-0.20
2023-01-20T19:44:13.904Z,-0.30
2023-01-20T19:46:42.080Z,-0.30
2023-01-20T19:49:12.876Z,-0.20
2023-01-20T19:51:40.870Z,-0.30
2023-01-20T19:54:13.307Z,-0.20
2023-01-20T19:56:41.899Z,-0.20
2023-01-20T19:59:14.275Z,-0.30
2023-01-20T20:01:42.282Z,-0.20
2023-01-20T20:04:14.089Z,0.00
2023-01-20T20:06:48.394Z,0.00
2023-01-20T20:09:23.534Z,0.00
2023-01-20T20:11:52.581Z,0.10
2023-01-20T20:14:23.259Z,0.10
2023-01-20T20:16:51.530Z,0.00
2023-01-20T20:19:20.891Z,-0.10
2023-01-20T20:21:49.471Z,0.10
2023-01-20T20:24:18.967Z,0.00
2023-01-20T20:26:48.151Z,0.00
2023-01-20T20:29:19.998Z,-0.10
2023-01-20T20:31:48.167Z,0.00
2023-01-20T20:34:19.617Z,0.00
2023-01-20T20:36:48.333Z,0.10
2023-01-20T20:39:19.851Z,0.00
2023-01-20T20:41:47.835Z,-0.10
2023-01-20T20:44:16.055Z,-0.10
2023-01-20T20:46:43.988Z,-0.20
2023-01-20T20:49:17.073Z,-0.30
2023-01-20T20:51:46.098Z,-0.20
2023-01-20T20:54:17.739Z,-0.20
2023-01-20T20:57:02.100Z,-0.10
2023-01-20T20:59:31.727Z,-0.30
2023-01-20T21:01:59.467Z,-0.20
2023-01-20T21:04:27.363Z,-0.20
2023-01-20T21:06:56.009Z,-0.20
2023-01-20T21:09:23.886Z,-0.20
2023-01-20T21:11:51.618Z,-0.20
2023-01-20T21:14:22.369Z,-0.10
2023-01-20T21:16:50.891Z,-0.10
2023-01-20T21:19:18.788Z,-0.20
2023-01-20T21:21:46.749Z,-0.30
2023-01-20T21:24:14.819Z,-0.30
2023-01-20T21:26:43.227Z,-0.30
2023-01-20T21:29:12.319Z,-0.30
2023-01-20T21:31:40.346Z,-0.40
2023-01-20T21:34:12.804Z,-0.30
2023-01-20T21:36:44.293Z,-0.30
2023-01-20T21:39:20.279Z,-0.40
2023-01-20T21:41:48.195Z,-0.50
2023-01-20T21:44:28.598Z,-0.50
2023-01-20T21:47:11.598Z,-0.60
2023-01-20T21:49:58.063Z,-0.60
2023-01-20T21:52:41.681Z,-0.60
2023-01-20T21:55:21.126Z,-0.50
2023-01-20T21:57:51.539Z,-0.50
2023-01-20T22:00:20.576Z,-0.50
2023-01-20T22:02:49.128Z,-0.40
2023-01-20T22:05:17.910Z,-0.40
2023-01-20T22:07:48.048Z,-0.50
2023-01-20T22:10:16.739Z,-0.50
2023-01-20T22:12:44.886Z,-0.50
2023-01-20T22:15:13.642Z,-0.50
2023-01-20T22:17:41.638Z,-0.40
2023-01-20T22:20:11.183Z,-0.40
2023-01-20T22:22:43.862Z,-0.40
2023-01-20T22:25:13.321Z,-0.30
2023-01-20T22:27:42.630Z,-0.40
2023-01-20T22:30:15.976Z,-0.40
2023-01-20T22:32:45.174Z,-0.40
2023-01-20T22:35:23.680Z,-0.50
2023-01-20T22:37:55.337Z,-0.50
2023-01-20T22:40:23.950Z,-0.60
2023-01-20T22:42:52.053Z,-0.60
2023-01-20T22:45:22.931Z,-0.70
2023-01-20T22:47:56.786Z,-0.80
2023-01-20T22:50:29.202Z,-0.70
2023-01-20T22:52:58.308Z,-0.80
2023-01-20T22:55:27.145Z,-0.80
2023-01-20T22:57:55.291Z,-0.90
2023-01-20T23:00:24.262Z,-0.90
2023-01-20T23:02:52.773Z,-1.00
2023-01-20T23:05:21.485Z,-1.10
2023-01-20T23:07:50.580Z,-1.10
2023-01-20T23:10:37.707Z,-1.00
2023-01-20T23:13:05.650Z,-1.00
2023-01-20T23:15:33.416Z,-0.80
2023-01-20T23:18:01.116Z,-0.90
2023-01-20T23:20:29.200Z,-0.90
2023-01-20T23:22:57.015Z,-1.00
2023-01-20T23:25:25.104Z,-1.00
2023-01-20T23:27:53.002Z,-1.20
2023-01-20T23:30:21.024Z,-1.40
2023-01-20T23:32:48.887Z,-1.40
2023-01-20T23:35:16.657Z,-1.40
2023-01-20T23:37:44.686Z,-1.50
2023-01-20T23:40:13.469Z,-1.60
2023-01-20T23:42:41.648Z,-1.40
2023-01-20T23:45:10.394Z,-1.50
2023-01-20T23:47:38.351Z,-1.50
2023-01-20T23:50:07.296Z,-1.40
2023-01-20T23:52:35.042Z,-1.40
2023-01-20T23:55:02.847Z,-1.30
2023-01-20T23:57:30.765Z,-1.30
2023-01-20T23:59:58.667Z,-1.30
